Time;durP1;ratioP1;P1;durP2;ratioP2;P2;SDS_P1;SDS_P2;PMS_P1;PMS_P2;Temp;Humidity;BMP_temperature;BMP_pressure;BME280_temperature;BME280_humidity;BME280_pressure;Samples;Min_cycle;Max_cycle;Signal;HPM_P1;HPM_P2
2021/03/05 00:01:54;;;;;;;17.10;11.77;;;;;;;8.64;71.67;96642.03;5056214;28;20198;-65
2021/03/05 00:04:20;;;;;;;19.37;12.07;;;;;;;8.35;73.73;96645.72;5055804;28;20787;-67
2021/03/05 00:06:45;;;;;;;17.90;11.50;;;;;;;8.44;73.21;96647.41;5071973;28;20428;-65
2021/03/05 00:09:12;;;;;;;16.00;11.80;;;;;;;8.32;73.52;96648.63;5073886;28;20209;-67
2021/03/05 00:11:37;;;;;;;19.10;13.50;;;;;;;8.27;73.91;96658.72;5071498;28;20186;-65
2021/03/05 00:14:03;;;;;;;20.87;14.03;;;;;;;8.42;73.34;96662.44;5073635;28;20509;-65
2021/03/05 00:16:28;;;;;;;26.90;18.00;;;;;;;7.22;74.58;96666.97;5074227;28;20186;-66
2021/03/05 00:18:54;;;;;;;26.53;19.03;;;;;;;6.83;75.88;96673.13;5072367;28;20653;-66
2021/03/05 00:21:20;;;;;;;28.20;19.70;;;;;;;6.90;76.31;96674.22;5072063;28;20722;-67
2021/03/05 00:23:45;;;;;;;32.03;21.73;;;;;;;6.67;76.54;96678.13;5068901;28;20638;-67
2021/03/05 00:26:11;;;;;;;34.90;24.20;;;;;;;6.48;77.62;96671.97;5049773;28;20187;-66
2021/03/05 00:28:37;;;;;;;34.20;24.00;;;;;;;6.44;78.00;96679.25;5072585;28;20214;-68
2021/03/05 00:31:02;;;;;;;39.80;24.83;;;;;;;6.36;77.99;96675.69;5074070;28;20201;-68
2021/03/05 00:33:28;;;;;;;41.53;26.30;;;;;;;6.55;77.26;96675.66;5075466;28;20206;-67
2021/03/05 00:35:54;;;;;;;40.83;28.03;;;;;;;6.14;78.51;96683.66;5081523;28;20186;-67
2021/03/05 00:38:21;;;;;;;41.33;26.97;;;;;;;6.35;77.18;96694.88;5075095;28;20440;-69
2021/03/05 00:40:51;;;;;;;44.10;27.17;;;;;;;6.11;77.81;96683.91;5066961;28;20799;-68
2021/03/05 00:43:20;;;;;;;43.70;27.97;;;;;;;6.13;77.23;96691.59;5080171;28;20475;-66
2021/03/05 00:45:48;;;;;;;40.73;25.63;;;;;;;5.87;76.51;96692.09;5062139;28;20435;-67
2021/03/05 00:48:13;;;;;;;38.10;23.87;;;;;;;5.72;76.11;96698.63;5079460;28;20473;-68
2021/03/05 00:50:39;;;;;;;36.70;22.57;;;;;;;5.57;75.81;96712.00;5075954;28;20417;-66
2021/03/05 00:53:04;;;;;;;36.30;23.10;;;;;;;5.61;75.75;96708.19;5073009;28;20240;-66
2021/03/05 00:55:30;;;;;;;34.70;23.37;;;;;;;5.33;76.05;96704.56;5069353;28;20187;-66
2021/03/05 00:57:56;;;;;;;40.40;25.33;;;;;;;5.41;75.82;96707.31;5052093;28;20293;-68
2021/03/05 01:00:22;;;;;;;35.63;23.43;;;;;;;5.33;75.45;96709.78;5072582;28;20178;-66
2021/03/05 01:02:47;;;;;;;40.77;25.57;;;;;;;5.20;75.63;96717.78;5072686;28;20185;-65
2021/03/05 01:05:13;;;;;;;40.03;26.73;;;;;;;5.22;76.48;96708.06;5071625;28;20429;-66
2021/03/05 01:07:39;;;;;;;42.83;24.20;;;;;;;5.46;76.42;96702.56;5069699;28;20308;-66
2021/03/05 01:10:06;;;;;;;41.17;24.40;;;;;;;5.24;76.99;96711.38;5061601;28;20252;-65
2021/03/05 01:12:32;;;;;;;44.23;27.07;;;;;;;5.13;76.95;96725.25;5067402;28;20259;-65
2021/03/05 01:14:58;;;;;;;41.53;25.23;;;;;;;5.27;76.54;96724.09;5072364;28;20472;-63
2021/03/05 01:17:24;;;;;;;41.70;25.27;;;;;;;5.35;75.94;96723.47;5071704;28;21010;-63
2021/03/05 01:19:49;;;;;;;52.83;28.70;;;;;;;5.08;76.03;96722.25;5064445;28;20186;-64
2021/03/05 01:22:15;;;;;;;51.77;27.43;;;;;;;4.95;77.31;96732.84;5072361;28;20188;-64
2021/03/05 01:24:40;;;;;;;54.60;29.60;;;;;;;4.54;78.24;96739.66;5067991;28;20206;-65
2021/03/05 01:27:06;;;;;;;62.13;31.93;;;;;;;4.52;78.48;96737.22;5064759;28;20186;-65
2021/03/05 01:29:33;;;;;;;62.07;29.67;;;;;;;4.47;79.06;96739.38;5064373;28;20190;-67
2021/03/05 01:31:58;;;;;;;62.93;30.67;;;;;;;4.51;78.75;96726.97;5071214;28;20425;-65
2021/03/05 01:34:24;;;;;;;69.27;31.77;;;;;;;4.55;78.02;96730.94;5063105;28;20514;-66
2021/03/05 01:36:50;;;;;;;58.40;31.50;;;;;;;4.41;77.87;96729.50;5071362;28;20724;-62
2021/03/05 01:39:16;;;;;;;64.57;30.00;;;;;;;4.51;77.81;96740.75;5072634;28;20796;-65
2021/03/05 01:41:41;;;;;;;62.47;31.10;;;;;;;4.43;77.59;96741.38;5066560;28;20187;-65
2021/03/05 01:44:08;;;;;;;58.90;29.40;;;;;;;4.28;78.20;96734.88;5065409;28;20638;-65
2021/03/05 01:46:34;;;;;;;61.20;28.97;;;;;;;4.58;76.85;96735.88;5073151;28;20273;-66
2021/03/05 01:49:00;;;;;;;51.17;27.20;;;;;;;4.60;77.21;96736.59;5069052;28;20444;-65
2021/03/05 01:51:28;;;;;;;55.73;28.00;;;;;;;4.89;75.84;96733.34;5070701;28;20421;-67
2021/03/05 01:53:54;;;;;;;53.53;27.37;;;;;;;4.83;75.83;96745.09;5070826;28;20533;-67
2021/03/05 01:56:39;;;;;;;52.10;25.93;;;;;;;4.63;76.42;96740.69;5064232;28;20507;-67
2021/03/05 01:59:08;;;;;;;45.30;25.00;;;;;;;4.52;76.49;96744.19;5070822;28;20289;-65
2021/03/05 02:01:35;;;;;;;44.30;22.77;;;;;;;4.48;76.46;96740.19;5071864;28;20424;-67
2021/03/05 02:04:01;;;;;;;38.30;22.33;;;;;;;4.43;76.50;96745.75;5070502;28;20447;-66
2021/03/05 02:06:27;;;;;;;41.07;20.90;;;;;;;4.38;77.19;96748.72;5071682;28;20432;-66
2021/03/05 02:08:52;;;;;;;44.10;23.10;;;;;;;4.55;76.76;96751.69;5070097;28;20441;-66
2021/03/05 02:11:22;;;;;;;43.53;22.27;;;;;;;4.58;75.66;96749.72;5070906;28;20186;-65
2021/03/05 02:13:49;;;;;;;49.70;24.17;;;;;;;4.44;76.41;96740.44;5070902;28;20210;-64
2021/03/05 02:16:29;;;;;;;52.43;25.73;;;;;;;4.49;76.10;96747.84;5071324;28;20425;-65
2021/03/05 02:18:58;;;;;;;55.93;28.50;;;;;;;4.21;78.05;96744.06;5068998;28;21074;-66
2021/03/05 02:21:56;;;;;;;66.50;33.73;;;;;;;3.73;79.20;96755.63;5070949;28;20436;-65
2021/03/05 02:24:59;;;;;;;64.40;31.90;;;;;;;4.04;78.80;96748.03;5053429;28;20409;-67
2021/03/05 02:27:54;;;;;;;70.57;31.50;;;;;;;4.26;77.90;96747.94;5064063;28;20432;-65
2021/03/05 02:30:49;;;;;;;66.53;32.03;;;;;;;4.30;78.21;96748.50;5061245;28;20487;-67
2021/03/05 02:33:20;;;;;;;69.63;31.83;;;;;;;4.33;77.09;96748.28;5077311;28;20551;-66
2021/03/05 02:35:47;;;;;;;66.53;30.73;;;;;;;4.59;76.78;96753.09;5070548;28;20424;-67
2021/03/05 02:38:15;;;;;;;65.40;34.83;;;;;;;4.14;78.43;96765.34;5071060;28;20448;-66
2021/03/05 02:40:42;;;;;;;67.60;31.20;;;;;;;4.39;76.52;96767.72;5069936;28;20437;-65
2021/03/05 02:43:10;;;;;;;60.13;28.80;;;;;;;4.10;78.27;96763.91;5068127;28;20803;-66
2021/03/05 02:45:37;;;;;;;64.13;30.90;;;;;;;4.32;78.06;96772.56;5070619;28;20429;-67
2021/03/05 02:48:06;;;;;;;71.90;33.10;;;;;;;4.39;78.32;96765.94;5051511;28;20498;-66
2021/03/05 02:50:33;;;;;;;60.10;27.70;;;;;;;4.14;78.29;96769.69;5071164;28;20927;-65
2021/03/05 02:53:02;;;;;;;59.40;30.50;;;;;;;3.87;79.09;96772.69;5067268;28;20482;-66
2021/03/05 02:55:28;;;;;;;60.27;30.13;;;;;;;3.80;79.53;96767.19;5060857;28;20426;-66
2021/03/05 02:57:56;;;;;;;63.60;32.90;;;;;;;3.86;79.18;96777.06;5066555;28;20531;-66
2021/03/05 03:00:22;;;;;;;68.33;32.80;;;;;;;4.16;77.88;96780.75;5069632;28;20912;-66
2021/03/05 03:02:48;;;;;;;55.63;28.50;;;;;;;4.07;78.36;96790.09;5068607;28;20425;-66
2021/03/05 03:05:14;;;;;;;61.43;29.30;;;;;;;4.22;77.34;96787.22;5069130;28;20432;-65
2021/03/05 03:07:41;;;;;;;58.30;31.33;;;;;;;4.05;77.92;96783.38;5069724;28;20508;-66
2021/03/05 03:10:08;;;;;;;67.73;29.97;;;;;;;4.33;76.78;96789.78;5062960;28;20439;-66
2021/03/05 03:12:34;;;;;;;69.97;30.93;;;;;;;4.21;77.47;96799.38;5066726;28;20478;-66
2021/03/05 03:15:02;;;;;;;94.57;35.17;;;;;;;4.22;77.78;96797.59;5072899;28;20863;-66
2021/03/05 03:17:28;;;;;;;91.30;34.97;;;;;;;4.30;77.27;96795.22;5077112;28;20207;-65
2021/03/05 03:19:54;;;;;;;97.67;33.13;;;;;;;4.03;77.26;96799.09;5076428;28;20416;-66
2021/03/05 03:22:21;;;;;;;79.83;31.00;;;;;;;3.95;78.28;96804.03;5075165;28;20223;-65
2021/03/05 03:24:47;;;;;;;68.73;30.67;;;;;;;3.64;79.26;96809.84;5069395;28;20557;-65
2021/03/05 03:27:12;;;;;;;68.43;30.80;;;;;;;3.85;79.51;96806.50;5069142;28;20852;-64
2021/03/05 03:29:41;;;;;;;61.50;30.30;;;;;;;3.75;79.80;96806.41;5058039;28;20522;-66
2021/03/05 03:32:09;;;;;;;63.73;31.00;;;;;;;3.62;80.31;96810.91;5075792;28;20225;-67
2021/03/05 03:34:35;;;;;;;65.87;31.53;;;;;;;3.83;79.54;96813.59;5078330;28;20954;-66
2021/03/05 03:37:01;;;;;;;65.50;30.47;;;;;;;3.87;79.25;96820.19;5024526;28;20478;-67
2021/03/05 03:39:26;;;;;;;62.27;30.07;;;;;;;4.27;77.39;96816.25;5034734;28;20440;-67
2021/03/05 03:41:53;;;;;;;60.47;29.60;;;;;;;4.44;77.16;96817.47;5063456;28;20179;-67
2021/03/05 03:44:19;;;;;;;64.00;28.00;;;;;;;4.40;76.56;96821.25;5072590;28;20195;-67
2021/03/05 03:46:48;;;;;;;57.30;29.67;;;;;;;4.21;77.55;96822.72;5072676;28;20431;-66
2021/03/05 03:49:44;;;;;;;51.37;28.17;;;;;;;4.35;77.59;96829.41;5073318;28;20206;-67
2021/03/05 03:52:26;;;;;;;61.20;28.70;;;;;;;4.22;77.83;96824.34;5056647;28;20580;-66
2021/03/05 03:54:52;;;;;;;72.47;30.97;;;;;;;3.95;77.80;96832.56;5072510;28;20460;-66
2021/03/05 03:57:22;;;;;;;95.70;35.07;;;;;;;4.24;77.41;96827.66;5066436;28;20425;-67
2021/03/05 03:59:47;;;;;;;105.97;34.60;;;;;;;4.24;76.95;96825.06;5071558;28;20432;-66
2021/03/05 04:02:14;;;;;;;88.20;30.63;;;;;;;3.99;78.36;96839.16;5071876;28;20424;-66
2021/03/05 04:04:39;;;;;;;93.57;33.20;;;;;;;4.16;77.59;96832.63;5072407;28;20676;-66
2021/03/05 04:07:06;;;;;;;45.83;24.53;;;;;;;4.00;78.10;96833.84;5063163;28;20505;-64
2021/03/05 04:09:34;;;;;;;37.80;22.40;;;;;;;3.70;78.47;96834.47;5052006;28;20680;-66
2021/03/05 04:12:00;;;;;;;38.20;21.77;;;;;;;3.62;78.86;96835.03;5071088;28;20474;-66
2021/03/05 04:14:26;;;;;;;35.33;21.93;;;;;;;3.77;78.97;96833.06;5067515;28;20448;-66
2021/03/05 04:16:53;;;;;;;36.40;21.80;;;;;;;3.77;78.63;96834.81;5043283;28;20191;-66
2021/03/05 04:19:20;;;;;;;37.37;22.47;;;;;;;3.96;77.89;96839.38;5051128;28;20496;-66
2021/03/05 04:21:45;;;;;;;39.70;22.97;;;;;;;3.76;78.53;96846.97;5051522;28;20428;-65
2021/03/05 04:24:11;;;;;;;40.37;22.93;;;;;;;3.83;78.58;96844.72;5051446;28;20417;-67
2021/03/05 04:26:37;;;;;;;34.77;21.93;;;;;;;3.59;79.54;96839.66;5051759;28;20179;-66
2021/03/05 04:29:03;;;;;;;32.77;19.20;;;;;;;3.65;78.92;96844.38;5052252;28;20494;-65
2021/03/05 04:31:28;;;;;;;33.37;20.40;;;;;;;3.58;79.06;96850.94;5061387;28;20266;-65
2021/03/05 04:33:54;;;;;;;34.83;19.90;;;;;;;3.69;78.94;96849.19;5060598;28;20594;-66
2021/03/05 04:36:19;;;;;;;36.67;21.00;;;;;;;3.82;78.20;96846.47;5052040;28;20422;-64
2021/03/05 04:38:45;;;;;;;31.60;19.40;;;;;;;4.02;77.43;96854.47;5059763;28;20202;-66
2021/03/05 04:41:10;;;;;;;31.87;20.50;;;;;;;3.68;77.50;96844.94;5056396;28;20638;-64
2021/03/05 04:43:36;;;;;;;32.87;20.20;;;;;;;3.76;77.57;96846.97;5057276;28;20202;-63
2021/03/05 04:46:02;;;;;;;33.33;20.40;;;;;;;3.41;78.96;96849.63;5055415;28;20203;-67
2021/03/05 04:48:27;;;;;;;35.73;18.33;;;;;;;3.74;78.50;96855.78;5060158;28;20275;-67
2021/03/05 04:50:53;;;;;;;34.20;19.60;;;;;;;3.64;77.60;96855.69;5053437;28;20233;-67
2021/03/05 04:53:19;;;;;;;33.30;19.17;;;;;;;3.82;77.25;96854.25;5052400;28;20202;-66
2021/03/05 04:55:44;;;;;;;34.00;19.40;;;;;;;3.87;77.00;96856.47;5050360;28;20209;-65
2021/03/05 04:58:10;;;;;;;35.77;20.10;;;;;;;3.74;77.33;96854.03;5051940;28;20227;-66
2021/03/05 05:00:36;;;;;;;32.13;19.90;;;;;;;3.63;79.07;96856.63;5051736;28;20676;-65
2021/03/05 05:03:02;;;;;;;36.53;20.70;;;;;;;3.77;78.47;96864.16;5051941;28;20524;-66
2021/03/05 05:05:27;;;;;;;35.97;20.53;;;;;;;3.92;78.27;96871.69;5052810;28;20187;-66
2021/03/05 05:07:55;;;;;;;38.20;21.23;;;;;;;4.35;77.01;96864.94;5059575;28;20681;-66
2021/03/05 05:10:20;;;;;;;35.70;21.07;;;;;;;3.97;78.10;96864.38;5052019;28;20266;-67
2021/03/05 05:12:46;;;;;;;34.73;20.47;;;;;;;3.93;77.78;96871.56;5051932;28;20521;-65
2021/03/05 05:15:12;;;;;;;38.27;20.17;;;;;;;3.62;78.43;96860.16;5050813;28;20812;-66
2021/03/05 05:17:37;;;;;;;37.30;20.97;;;;;;;3.68;79.12;96864.84;5051946;28;20209;-66
2021/03/05 05:20:05;;;;;;;33.93;20.23;;;;;;;3.65;79.27;96872.88;5054950;28;20183;-66
2021/03/05 05:22:32;;;;;;;36.50;19.53;;;;;;;3.58;79.31;96876.88;5057578;28;20183;-66
2021/03/05 05:24:57;;;;;;;36.70;20.90;;;;;;;3.76;78.09;96879.81;5051761;28;20430;-66
2021/03/05 05:27:23;;;;;;;32.57;19.47;;;;;;;3.74;77.89;96874.75;5052106;28;20498;-67
2021/03/05 05:29:48;;;;;;;39.23;18.93;;;;;;;3.62;78.01;96881.69;5073786;28;20186;-66
2021/03/05 05:32:14;;;;;;;30.70;19.23;;;;;;;3.47;79.31;96881.09;5068556;28;20229;-66
2021/03/05 05:34:40;;;;;;;31.90;18.10;;;;;;;3.54;78.16;96881.47;5057429;28;20242;-66
2021/03/05 05:37:06;;;;;;;32.83;19.23;;;;;;;3.92;77.36;96884.63;5050654;28;20171;-63
2021/03/05 05:39:31;;;;;;;29.10;17.60;;;;;;;3.79;78.14;96890.78;5050984;28;20437;-65
2021/03/05 05:41:58;;;;;;;36.10;18.93;;;;;;;4.05;76.53;96890.53;5054787;28;20179;-66
2021/03/05 05:44:24;;;;;;;30.73;18.27;;;;;;;3.79;77.41;96895.16;5055845;28;20191;-66
2021/03/05 05:46:51;;;;;;;29.80;17.17;;;;;;;3.88;77.89;96891.84;5054077;28;20429;-65
2021/03/05 05:49:18;;;;;;;34.93;17.27;;;;;;;4.17;76.05;96893.09;5049805;28;20202;-67
2021/03/05 05:51:45;;;;;;;34.80;18.73;;;;;;;4.26;75.73;96902.78;5049706;28;20520;-64
2021/03/05 05:54:19;;;;;;;34.07;18.87;;;;;;;3.81;76.28;96895.84;5050671;28;20845;-64
2021/03/05 05:56:45;;;;;;;30.00;17.37;;;;;;;3.82;76.59;96900.09;5049360;28;20422;-66
2021/03/05 05:59:11;;;;;;;31.53;17.60;;;;;;;3.72;77.11;96910.34;5049893;28;20452;-66
2021/03/05 06:01:36;;;;;;;30.60;17.60;;;;;;;3.57;77.69;96903.72;5050848;28;20182;-68
2021/03/05 06:04:03;;;;;;;31.93;16.30;;;;;;;3.75;76.92;96907.53;5049545;28;20252;-67
2021/03/05 06:06:30;;;;;;;33.47;16.70;;;;;;;3.80;75.92;96910.56;5050996;28;20191;-65
2021/03/05 06:09:00;;;;;;;33.00;17.53;;;;;;;3.90;75.27;96908.09;5049249;28;20445;-66
2021/03/05 06:11:33;;;;;;;32.60;17.90;;;;;;;4.01;75.73;96917.66;5050335;28;20432;-65
2021/03/05 06:14:06;;;;;;;31.27;16.20;;;;;;;3.94;75.83;96919.06;5050183;28;20511;-67
2021/03/05 06:16:32;;;;;;;28.73;16.50;;;;;;;3.64;76.54;96918.69;5049173;28;20484;-64
2021/03/05 06:18:59;;;;;;;32.23;17.40;;;;;;;3.61;76.42;96925.88;5048637;28;20473;-69
2021/03/05 06:21:36;;;;;;;28.57;16.50;;;;;;;3.82;75.29;96923.44;5051053;28;20458;-66
2021/03/05 06:24:06;;;;;;;37.07;16.53;;;;;;;3.75;76.42;96932.59;5050302;28;20475;-66
2021/03/05 06:27:00;;;;;;;33.50;16.37;;;;;;;4.02;74.39;96936.63;5065046;28;21003;-66
2021/03/05 06:29:28;;;;;;;27.27;15.40;;;;;;;3.90;75.04;96939.22;5068788;28;20429;-65
2021/03/05 06:31:57;;;;;;;32.40;16.53;;;;;;;3.79;75.44;96937.44;5068568;28;20433;-66
2021/03/05 06:34:23;;;;;;;29.83;15.70;;;;;;;4.26;74.02;96944.31;5070664;28;20559;-66
2021/03/05 06:37:04;;;;;;;31.20;17.00;;;;;;;3.94;75.08;96947.59;5069232;28;21096;-66
2021/03/05 06:39:31;;;;;;;31.13;16.27;;;;;;;3.89;75.49;96950.53;5070291;28;20510;-66
2021/03/05 06:41:59;;;;;;;30.27;16.20;;;;;;;4.22;75.04;96948.88;5062566;28;20974;-67
2021/03/05 06:44:25;;;;;;;30.27;17.37;;;;;;;4.10;74.46;96955.84;5070071;28;21165;-66
2021/03/05 06:46:50;;;;;;;30.83;17.20;;;;;;;3.87;76.05;96964.56;5073447;28;20421;-65
2021/03/05 06:49:16;;;;;;;26.70;16.63;;;;;;;3.97;74.77;96962.91;5073119;28;20676;-66
2021/03/05 06:51:51;;;;;;;29.73;17.17;;;;;;;3.85;75.22;96969.84;5075057;28;20672;-66
2021/03/05 06:54:16;;;;;;;29.80;15.70;;;;;;;4.09;74.26;96969.75;5075278;28;20616;-65
2021/03/05 06:56:47;;;;;;;19.67;10.70;;;;;;;5.21;84.80;96974.03;5061710;28;20505;-68
2021/03/05 06:59:15;;;;;;;23.50;14.20;;;;;;;4.95;72.98;96974.38;5046167;28;20199;-67
2021/03/05 07:02:00;;;;;;;22.33;13.70;;;;;;;4.68;70.20;96974.78;5053233;28;20429;-65
2021/03/05 07:04:27;;;;;;;24.63;15.47;;;;;;;3.78;74.06;96979.03;5058179;28;20567;-65
2021/03/05 07:07:02;;;;;;;26.03;14.93;;;;;;;3.94;73.82;96982.13;5067299;28;20413;-66
2021/03/05 07:09:35;;;;;;;30.90;15.47;;;;;;;4.02;74.22;96988.50;5054244;28;20441;-66
2021/03/05 07:12:15;;;;;;;28.43;16.17;;;;;;;3.78;74.81;96990.22;5054790;28;20482;-66
2021/03/05 07:14:46;;;;;;;28.10;15.30;;;;;;;3.90;74.88;96995.47;5055313;28;20507;-66
2021/03/05 07:17:13;;;;;;;32.73;15.90;;;;;;;4.11;74.25;96999.00;5055458;28;20479;-66
2021/03/05 07:19:39;;;;;;;30.87;16.40;;;;;;;4.21;74.07;97008.69;5070565;28;20416;-66
2021/03/05 07:22:09;;;;;;;33.97;16.60;;;;;;;4.15;74.32;97000.44;5065341;28;20497;-64
2021/03/05 07:24:39;;;;;;;30.53;16.77;;;;;;;4.04;75.21;97003.00;5058512;28;20417;-66
2021/03/05 07:27:09;;;;;;;32.73;17.53;;;;;;;4.27;74.34;97008.22;5063778;28;20429;-66
2021/03/05 07:29:45;;;;;;;34.10;17.37;;;;;;;3.94;74.91;97017.59;5054157;28;20767;-65
2021/03/05 07:32:10;;;;;;;29.33;17.03;;;;;;;4.07;75.53;97022.72;5050409;28;20941;-67
2021/03/05 07:34:37;;;;;;;30.90;16.17;;;;;;;4.40;74.56;97021.91;5059108;28;20556;-66
2021/03/05 07:37:07;;;;;;;32.00;17.60;;;;;;;4.75;73.07;97018.34;5053569;28;20187;-66
2021/03/05 07:39:36;;;;;;;31.00;16.17;;;;;;;4.60;73.72;97029.91;5053043;28;20477;-66
2021/03/05 07:42:02;;;;;;;31.90;16.43;;;;;;;4.70;72.85;97023.06;5057088;28;20440;-66
2021/03/05 07:44:28;;;;;;;33.03;17.07;;;;;;;4.34;73.03;97037.94;5061995;28;20437;-66
2021/03/05 07:46:54;;;;;;;28.07;16.50;;;;;;;4.35;72.80;97031.00;5061098;28;20536;-66
2021/03/05 07:49:25;;;;;;;29.30;15.93;;;;;;;4.34;73.05;97037.94;5060248;28;20251;-66
2021/03/05 07:51:54;;;;;;;28.00;14.77;;;;;;;4.51;73.43;97038.41;5058186;28;20642;-65
2021/03/05 07:54:43;;;;;;;30.43;16.83;;;;;;;4.23;73.88;97038.75;5054594;28;20469;-65
2021/03/05 07:57:15;;;;;;;30.43;15.73;;;;;;;4.58;72.76;97045.63;5046994;28;20441;-65
2021/03/05 07:59:40;;;;;;;26.67;15.10;;;;;;;4.51;73.14;97041.00;5065897;28;20422;-66
2021/03/05 08:02:09;;;;;;;32.30;16.20;;;;;;;4.26;73.09;97048.06;5062851;28;20486;-66
2021/03/05 08:04:48;;;;;;;30.47;16.60;;;;;;;4.42;72.98;97047.72;5046906;28;20670;-65
2021/03/05 08:07:14;;;;;;;28.90;15.43;;;;;;;4.52;72.96;97055.66;5048173;28;20421;-67
2021/03/05 08:09:39;;;;;;;32.50;16.23;;;;;;;4.22;74.22;97052.66;5054368;28;20436;-66
2021/03/05 08:12:28;;;;;;;33.80;16.77;;;;;;;4.28;73.13;97059.19;5057561;28;20497;-65
2021/03/05 08:15:06;;;;;;;32.97;16.77;;;;;;;4.20;73.72;97058.91;5047255;28;20242;-66
2021/03/05 08:17:40;;;;;;;27.30;14.77;;;;;;;4.75;72.70;97065.06;5055049;28;20437;-66
2021/03/05 08:20:07;;;;;;;29.93;15.97;;;;;;;4.66;72.14;97070.16;5055716;28;20418;-66
2021/03/05 08:22:33;;;;;;;32.23;16.83;;;;;;;4.54;72.33;97066.72;5058955;28;20425;-65
2021/03/05 08:25:31;;;;;;;32.20;17.00;;;;;;;5.16;70.82;97069.75;5057495;28;20426;-66
2021/03/05 08:27:59;;;;;;;30.20;15.20;;;;;;;5.42;69.94;97083.25;5042585;28;20823;-67
2021/03/05 08:30:33;;;;;;;30.63;16.57;;;;;;;4.83;70.78;97081.81;5056301;28;20468;-66
2021/03/05 08:33:05;;;;;;;23.40;13.63;;;;;;;5.05;70.43;97079.19;5057516;28;20448;-65
2021/03/05 08:35:31;;;;;;;28.33;14.20;;;;;;;4.96;70.15;97079.91;5057370;28;20565;-66
2021/03/05 08:38:15;;;;;;;25.80;14.87;;;;;;;4.55;71.41;97078.75;5051957;28;20555;-66
2021/03/05 08:40:44;;;;;;;25.43;15.20;;;;;;;5.05;71.05;97083.56;5015923;28;20211;-65
2021/03/05 08:43:09;;;;;;;25.13;14.87;;;;;;;4.71;71.85;97089.63;5094227;28;20433;-65
2021/03/05 08:45:43;;;;;;;25.97;13.83;;;;;;;4.41;72.24;97085.81;5055177;28;20578;-66
2021/03/05 08:48:11;;;;;;;27.07;14.27;;;;;;;4.81;71.72;97094.09;5056360;28;20205;-65
2021/03/05 08:50:38;;;;;;;29.63;14.90;;;;;;;5.01;71.53;97095.97;5061243;28;20413;-65
2021/03/05 08:53:05;;;;;;;28.17;14.47;;;;;;;5.24;70.79;97101.13;5054187;28;20992;-64
2021/03/05 08:55:32;;;;;;;25.70;13.07;;;;;;;5.35;70.16;97095.09;5054982;28;20422;-65
2021/03/05 08:57:58;;;;;;;27.40;14.60;;;;;;;5.31;69.56;97099.69;5053587;28;20536;-67
2021/03/05 09:00:28;;;;;;;25.30;14.57;;;;;;;4.54;71.33;97105.66;5068057;28;20432;-67
2021/03/05 09:03:06;;;;;;;26.33;14.57;;;;;;;4.53;72.57;97112.63;5058863;28;20409;-65
2021/03/05 09:05:33;;;;;;;28.00;14.77;;;;;;;4.96;71.28;97105.09;5055037;28;20474;-68
2021/03/05 09:07:59;;;;;;;28.97;15.03;;;;;;;4.95;71.41;97104.25;5051619;28;20446;-65
2021/03/05 09:10:38;;;;;;;24.50;13.60;;;;;;;4.65;72.17;97103.09;5036452;28;20434;-65
2021/03/05 09:13:04;;;;;;;32.03;14.97;;;;;;;4.65;72.42;97115.22;5051521;28;20457;-66
2021/03/05 09:15:46;;;;;;;27.87;14.27;;;;;;;4.90;71.79;97114.19;5052540;28;20418;-65
2021/03/05 09:18:18;;;;;;;27.23;15.07;;;;;;;4.64;72.01;97114.41;5051011;28;20207;-67
2021/03/05 09:20:53;;;;;;;29.00;15.60;;;;;;;5.04;71.18;97119.09;5053349;28;20437;-66
2021/03/05 09:23:19;;;;;;;25.20;13.60;;;;;;;5.06;70.71;97117.22;5052137;28;20481;-67
2021/03/05 09:25:55;;;;;;;33.70;15.20;;;;;;;4.96;69.22;97112.88;5053152;28;20422;-67
2021/03/05 09:28:23;;;;;;;26.80;14.27;;;;;;;5.19;69.65;97118.84;5050852;28;20477;-65
2021/03/05 09:30:54;;;;;;;26.00;13.97;;;;;;;5.03;70.35;97114.88;5052354;28;20417;-65
2021/03/05 09:33:35;;;;;;;27.50;13.30;;;;;;;5.33;69.35;97117.78;5052137;28;20441;-67
2021/03/05 09:36:04;;;;;;;22.67;12.53;;;;;;;5.75;67.59;97130.06;5051961;28;20788;-66
2021/03/05 09:38:31;;;;;;;24.03;11.93;;;;;;;5.30;67.61;97121.44;5050753;28;20440;-67
2021/03/05 09:41:17;;;;;;;20.43;12.73;;;;;;;5.73;66.68;97122.41;5053309;28;20487;-66
2021/03/05 09:43:43;;;;;;;25.20;13.87;;;;;;;4.80;69.23;97126.19;5054309;28;20430;-66
2021/03/05 09:46:20;;;;;;;23.20;11.83;;;;;;;5.26;67.24;97127.84;5050757;28;20497;-66
2021/03/05 09:48:46;;;;;;;23.50;12.23;;;;;;;4.72;68.67;97132.81;5051406;28;20449;-65
2021/03/05 09:51:12;;;;;;;21.50;11.73;;;;;;;4.66;69.83;97141.09;5052916;28;20425;-67
2021/03/05 09:53:39;;;;;;;22.40;14.30;;;;;;;4.94;68.57;97136.34;5051907;28;20698;-65
2021/03/05 09:56:06;;;;;;;19.80;11.93;;;;;;;4.82;68.88;97147.69;5043826;28;20414;-65
2021/03/05 09:58:32;;;;;;;22.17;11.40;;;;;;;4.96;68.98;97147.44;5052029;28;20445;-66
2021/03/05 10:00:59;;;;;;;25.80;13.47;;;;;;;5.67;67.12;97152.28;5041996;28;20500;-66
2021/03/05 10:03:25;;;;;;;21.70;11.83;;;;;;;5.78;66.39;97150.63;5051931;28;20766;-66
2021/03/05 10:05:51;;;;;;;27.60;12.93;;;;;;;6.05;65.48;97147.59;5051815;28;20524;-66
2021/03/05 10:08:20;;;;;;;18.70;10.93;;;;;;;5.70;64.81;97159.03;5050902;28;20524;-66
2021/03/05 10:11:02;;;;;;;20.97;12.27;;;;;;;5.41;65.01;97158.75;5051714;28;20421;-66
2021/03/05 10:13:42;;;;;;;23.30;11.40;;;;;;;5.92;64.61;97162.50;5050999;28;20793;-67
2021/03/05 10:16:15;;;;;;;17.60;11.37;;;;;;;6.34;63.05;97156.56;5055919;28;20425;-67
2021/03/05 10:18:43;;;;;;;24.03;11.90;;;;;;;6.04;64.52;97152.94;5033287;28;20778;-67
2021/03/05 10:21:13;;;;;;;22.00;11.43;;;;;;;5.13;66.48;97160.91;5059656;28;20476;-66
2021/03/05 10:23:40;;;;;;;21.60;11.10;;;;;;;6.25;62.94;97155.53;5051437;28;20410;-67
2021/03/05 10:26:16;;;;;;;17.67;10.63;;;;;;;6.08;62.56;97156.91;5059767;28;20419;-65
2021/03/05 10:28:42;;;;;;;14.83;9.30;;;;;;;6.19;62.25;97164.66;5054030;28;20445;-66
2021/03/05 10:31:07;;;;;;;20.57;11.53;;;;;;;5.92;63.20;97172.91;5052620;28;20422;-66
2021/03/05 10:33:37;;;;;;;17.70;10.80;;;;;;;5.63;63.71;97174.31;5055895;28;20449;-66
2021/03/05 10:36:04;;;;;;;22.60;12.70;;;;;;;5.44;65.97;97171.50;5050800;28;20185;-65
2021/03/05 10:38:29;;;;;;;22.30;11.87;;;;;;;5.67;64.97;97170.50;5050154;28;20456;-66
2021/03/05 10:40:55;;;;;;;20.17;12.70;;;;;;;5.78;64.50;97182.66;5052691;28;20996;-65
2021/03/05 10:43:21;;;;;;;26.13;12.47;;;;;;;5.81;64.08;97184.19;5057342;28;20186;-67
2021/03/05 10:45:47;;;;;;;18.77;10.57;;;;;;;5.45;65.25;97183.53;5051606;28;20433;-66
2021/03/05 10:48:13;;;;;;;19.23;11.20;;;;;;;5.30;65.40;97177.78;5050551;28;20285;-66
2021/03/05 10:50:39;;;;;;;20.03;11.33;;;;;;;5.44;64.26;97189.69;5016909;28;20499;-66
2021/03/05 10:53:04;;;;;;;17.57;10.60;;;;;;;5.82;62.67;97193.63;5040821;28;20521;-67
2021/03/05 10:55:30;;;;;;;18.13;10.37;;;;;;;6.19;61.84;97192.47;5044785;28;20681;-66
2021/03/05 10:57:56;;;;;;;18.03;10.67;;;;;;;6.43;60.89;97197.44;5047090;28;20206;-66
2021/03/05 11:00:24;;;;;;;18.60;10.30;;;;;;;6.60;60.39;97199.50;5054800;28;20207;-68
2021/03/05 11:02:49;;;;;;;22.70;11.30;;;;;;;5.81;61.60;97198.03;5050838;28;20190;-66
2021/03/05 11:05:15;;;;;;;14.77;10.10;;;;;;;5.95;61.46;97201.28;5050945;28;20789;-66
2021/03/05 11:07:42;;;;;;;20.87;12.27;;;;;;;5.74;62.79;97209.03;5051265;28;20202;-66
2021/03/05 11:10:08;;;;;;;23.87;12.27;;;;;;;5.91;62.26;97203.31;5058718;28;20413;-67
2021/03/05 11:12:33;;;;;;;21.23;11.30;;;;;;;5.83;61.59;97209.13;5050826;28;20425;-65
2021/03/05 11:14:59;;;;;;;22.57;11.30;;;;;;;6.00;62.52;97206.97;5060210;28;20464;-67
2021/03/05 11:17:24;;;;;;;18.27;11.70;;;;;;;5.96;62.29;97211.56;5051101;28;20187;-67
2021/03/05 11:19:50;;;;;;;19.80;12.00;;;;;;;5.99;60.97;97206.16;5042081;28;20186;-67
2021/03/05 11:22:16;;;;;;;20.27;12.47;;;;;;;5.66;61.56;97209.63;5051010;28;20207;-65
2021/03/05 11:24:41;;;;;;;20.30;11.90;;;;;;;6.08;60.77;97214.16;5053609;28;20171;-66
2021/03/05 11:27:07;;;;;;;18.23;11.27;;;;;;;6.18;61.39;97216.84;5051285;28;20241;-66
2021/03/05 11:29:33;;;;;;;23.90;15.20;;;;;;;6.08;60.90;97221.97;5049870;28;20199;-66
2021/03/05 11:32:00;;;;;;;20.77;12.10;;;;;;;5.46;63.84;97211.19;5056195;28;20183;-66